Time;durP1;ratioP1;P1;durP2;ratioP2;P2;SDS_P1;SDS_P2;PMS_P1;PMS_P2;Temp;Humidity;BMP_temperature;BMP_pressure;BME280_temperature;BME280_humidity;BME280_pressure;Samples;Min_cycle;Max_cycle;Signal;HPM_P1;HPM_P2
2023/07/22 00:00:26;;;;;;;10.73;4.60;;;12.70;99.90;;;;;;4972682;28;20038;-83
2023/07/22 00:02:52;;;;;;;16.08;9.45;;;12.70;99.90;;;;;;4973451;28;20090;-83
2023/07/22 00:05:23;;;;;;;14.98;9.45;;;12.80;99.90;;;;;;4974598;28;20038;-83
2023/07/22 00:07:51;;;;;;;11.50;4.47;;;12.90;99.90;;;;;;4961011;28;20038;-83
2023/07/22 00:10:17;;;;;;;10.07;4.10;;;12.80;99.90;;;;;;4961623;28;20039;-83
2023/07/22 00:12:42;;;;;;;13.00;5.03;;;12.80;99.90;;;;;;4961540;28;20590;-82
2023/07/22 00:15:11;;;;;;;12.52;4.68;;;12.70;99.90;;;;;;4976873;28;20047;-83
2023/07/22 00:17:37;;;;;;;9.85;4.07;;;12.70;99.90;;;;;;4960771;28;20046;-83
2023/07/22 00:20:04;;;;;;;12.95;5.43;;;12.70;99.90;;;;;;4961167;28;20038;-83
2023/07/22 00:22:30;;;;;;;13.40;5.22;;;12.70;99.90;;;;;;4976750;28;20097;-82
2023/07/22 00:24:55;;;;;;;10.35;3.92;;;12.60;99.90;;;;;;4977228;28;20050;-83
2023/07/22 00:27:21;;;;;;;10.63;4.60;;;12.60;99.90;;;;;;4976927;28;20042;-82
2023/07/22 00:29:46;;;;;;;11.13;4.45;;;12.60;99.90;;;;;;4976436;28;20530;-83
2023/07/22 00:32:13;;;;;;;11.90;4.30;;;12.60;99.90;;;;;;4977273;28;20104;-83
2023/07/22 00:34:39;;;;;;;13.57;5.18;;;12.60;99.90;;;;;;4976956;28;20053;-83
2023/07/22 00:37:04;;;;;;;12.55;4.53;;;12.60;99.90;;;;;;4976483;28;20042;-82
2023/07/22 00:39:30;;;;;;;14.00;4.75;;;12.60;99.90;;;;;;4976724;28;20088;-82
2023/07/22 00:41:56;;;;;;;11.68;5.07;;;12.70;99.90;;;;;;4976386;28;20518;-83
2023/07/22 00:44:21;;;;;;;12.07;5.13;;;12.70;99.90;;;;;;4977102;28;20052;-82
2023/07/22 00:46:47;;;;;;;11.20;4.53;;;12.70;99.90;;;;;;4976539;28;20054;-82
2023/07/22 00:49:14;;;;;;;15.52;10.05;;;12.70;99.90;;;;;;4976352;28;20495;-83
2023/07/22 00:51:40;;;;;;;10.65;4.07;;;12.70;99.90;;;;;;4977101;28;20069;-83
2023/07/22 00:54:06;;;;;;;14.82;4.57;;;12.70;99.90;;;;;;4976843;28;20094;-83
2023/07/22 00:56:35;;;;;;;15.52;10.02;;;12.70;99.90;;;;;;4976395;28;20043;-83
2023/07/22 00:59:01;;;;;;;17.33;10.18;;;12.70;99.90;;;;;;4959818;28;20044;-83
2023/07/22 01:01:27;;;;;;;12.63;4.93;;;12.70;99.90;;;;;;4959828;28;20554;-83
2023/07/22 01:03:52;;;;;;;14.43;5.00;;;12.60;99.90;;;;;;4976477;28;20458;-83
2023/07/22 01:06:19;;;;;;;12.30;4.88;;;12.60;99.90;;;;;;4976331;28;20048;-82
2023/07/22 01:08:46;;;;;;;11.45;4.57;;;12.50;99.90;;;;;;4976159;28;20496;-82
2023/07/22 01:11:12;;;;;;;14.13;5.35;;;12.40;99.90;;;;;;4976138;28;20515;-82
2023/07/22 01:13:38;;;;;;;13.15;5.03;;;12.40;99.90;;;;;;4976061;28;20246;-83
2023/07/22 01:16:06;;;;;;;16.88;10.60;;;12.40;99.90;;;;;;4975661;28;20074;-83
2023/07/22 01:18:35;;;;;;;10.18;4.82;;;12.50;99.90;;;;;;4975550;28;20050;-82
2023/07/22 01:21:01;;;;;;;11.43;4.45;;;12.50;99.90;;;;;;4975211;28;20392;-82
2023/07/22 01:23:27;;;;;;;12.93;4.95;;;12.40;99.90;;;;;;4959609;28;20066;-83
2023/07/22 01:25:53;;;;;;;16.45;9.95;;;12.40;99.90;;;;;;4959042;28;20082;-82
2023/07/22 01:28:21;;;;;;;13.75;5.47;;;12.50;99.90;;;;;;4991902;28;20112;-83
2023/07/22 01:30:47;;;;;;;13.75;5.05;;;12.50;99.90;;;;;;4959578;28;20492;-84
2023/07/22 01:33:12;;;;;;;13.55;5.05;;;12.50;99.90;;;;;;4975893;28;20104;-84
2023/07/22 01:35:38;;;;;;;14.13;6.00;;;12.50;99.90;;;;;;4975251;28;20049;-84
2023/07/22 01:38:03;;;;;;;14.25;6.15;;;12.50;99.90;;;;;;4975914;28;20088;-83
2023/07/22 01:40:29;;;;;;;14.55;7.03;;;12.50;99.90;;;;;;4975129;28;20415;-83
2023/07/22 01:42:55;;;;;;;18.17;11.60;;;12.50;99.90;;;;;;4959514;28;20039;-83
2023/07/22 01:45:20;;;;;;;18.90;12.10;;;12.60;99.90;;;;;;4975983;28;20086;-83
2023/07/22 01:47:46;;;;;;;15.40;5.13;;;12.70;99.90;;;;;;4975221;28;20516;-83
2023/07/22 01:50:12;;;;;;;13.45;5.35;;;12.60;99.90;;;;;;4975185;28;20056;-83
2023/07/22 01:52:37;;;;;;;16.17;4.95;;;12.60;99.90;;;;;;4975560;28;20045;-83
2023/07/22 01:55:05;;;;;;;13.02;5.07;;;12.50;99.90;;;;;;4975147;28;20042;-83
2023/07/22 01:57:32;;;;;;;14.05;5.20;;;12.50;99.90;;;;;;4975373;28;20038;-83
2023/07/22 01:59:58;;;;;;;12.30;5.03;;;12.50;99.90;;;;;;4974898;28;20038;-83
2023/07/22 02:02:23;;;;;;;17.95;11.48;;;12.50;99.90;;;;;;4974992;28;20411;-83
2023/07/22 02:04:49;;;;;;;13.88;5.38;;;12.50;99.90;;;;;;4975346;28;20384;-83
2023/07/22 02:07:15;;;;;;;17.80;5.57;;;12.50;99.90;;;;;;4975083;28;20042;-83
2023/07/22 02:09:40;;;;;;;15.98;5.28;;;12.40;99.90;;;;;;4958840;28;20407;-83
2023/07/22 02:12:07;;;;;;;13.90;5.03;;;12.40;99.90;;;;;;4959208;28;20034;-84
2023/07/22 02:14:33;;;;;;;12.82;5.57;;;12.40;99.90;;;;;;4975243;28;20042;-83
2023/07/22 02:16:59;;;;;;;12.27;5.25;;;12.40;99.90;;;;;;4974930;28;20558;-83
2023/07/22 02:19:24;;;;;;;18.67;5.20;;;12.40;99.90;;;;;;4958901;28;20423;-82
2023/07/22 02:21:50;;;;;;;16.65;6.40;;;12.30;99.90;;;;;;4958200;28;20176;-82
2023/07/22 02:24:15;;;;;;;14.80;6.95;;;12.40;99.90;;;;;;4959087;28;20088;-83
2023/07/22 02:26:41;;;;;;;17.90;6.28;;;12.40;99.90;;;;;;4974872;28;20510;-82
2023/07/22 02:29:07;;;;;;;14.05;6.80;;;12.40;99.90;;;;;;4974722;28;20443;-83
2023/07/22 02:31:33;;;;;;;15.73;7.25;;;12.40;99.90;;;;;;4975065;28;20475;-82
2023/07/22 02:33:59;;;;;;;22.17;15.07;;;12.40;99.90;;;;;;4959062;28;20152;-83
2023/07/22 02:36:24;;;;;;;14.48;6.07;;;12.50;99.90;;;;;;4974125;28;20049;-82
2023/07/22 02:38:50;;;;;;;14.68;5.82;;;12.50;99.90;;;;;;4974494;28;20041;-83
2023/07/22 02:41:16;;;;;;;15.75;6.70;;;12.40;99.90;;;;;;4974211;28;20034;-82
2023/07/22 02:43:41;;;;;;;18.00;7.47;;;12.40;99.90;;;;;;4958601;28;20478;-83
2023/07/22 02:46:08;;;;;;;12.70;5.75;;;12.40;99.90;;;;;;4958380;28;20570;-82
2023/07/22 02:48:34;;;;;;;14.63;6.60;;;12.40;99.90;;;;;;4974235;28;20038;-82
2023/07/22 02:51:07;;;;;;;16.95;6.78;;;12.40;99.90;;;;;;4974004;28;20046;-82
2023/07/22 02:53:33;;;;;;;20.27;6.68;;;12.40;99.90;;;;;;4974450;28;20044;-83
2023/07/22 02:56:00;;;;;;;17.35;7.75;;;12.40;99.90;;;;;;4958128;28;20161;-82
2023/07/22 02:58:25;;;;;;;16.23;7.43;;;12.40;99.90;;;;;;4958391;28;20030;-83
2023/07/22 03:00:51;;;;;;;21.35;14.45;;;12.40;99.90;;;;;;4973702;28;20565;-82
2023/07/22 03:03:18;;;;;;;19.88;7.57;;;12.50;99.90;;;;;;4974385;28;20615;-82
2023/07/22 03:05:44;;;;;;;14.75;5.60;;;12.50;99.90;;;;;;4957986;28;20509;-82
2023/07/22 03:08:10;;;;;;;16.05;6.10;;;12.50;99.90;;;;;;4974575;28;20129;-82
2023/07/22 03:10:35;;;;;;;15.27;6.47;;;12.40;99.90;;;;;;4973979;28;20127;-82
2023/07/22 03:13:01;;;;;;;14.77;6.68;;;12.50;99.90;;;;;;4974386;28;20570;-83
2023/07/22 03:15:28;;;;;;;14.68;6.45;;;12.50;99.90;;;;;;4973990;28;20066;-82
2023/07/22 03:17:55;;;;;;;18.15;12.73;;;12.40;99.90;;;;;;4973979;28;20038;-82
2023/07/22 03:20:21;;;;;;;19.25;13.02;;;12.50;99.90;;;;;;4958126;28;20049;-82
2023/07/22 03:22:47;;;;;;;16.08;5.88;;;12.60;99.90;;;;;;4973931;28;20054;-82
2023/07/22 03:25:16;;;;;;;14.50;7.00;;;12.60;99.90;;;;;;4974258;28;20522;-82
2023/07/22 03:27:43;;;;;;;16.17;5.32;;;12.50;99.90;;;;;;4957416;28;20049;-82
2023/07/22 03:30:11;;;;;;;17.02;7.85;;;12.50;99.90;;;;;;4973386;28;20108;-82
2023/07/22 03:32:37;;;;;;;20.02;13.02;;;12.50;99.90;;;;;;4974082;28;20046;-83
2023/07/22 03:35:03;;;;;;;12.98;5.70;;;12.60;99.90;;;;;;4973934;28;20034;-83
2023/07/22 03:37:29;;;;;;;12.75;5.43;;;12.60;99.90;;;;;;4973610;28;20046;-83
2023/07/22 03:39:55;;;;;;;12.57;5.60;;;12.60;99.90;;;;;;4974202;28;20046;-83
2023/07/22 03:42:20;;;;;;;12.68;5.50;;;12.60;99.90;;;;;;4977361;28;20495;-83
2023/07/22 03:44:46;;;;;;;14.38;5.82;;;12.60;99.90;;;;;;4977836;28;20132;-83
2023/07/22 03:47:11;;;;;;;20.75;12.75;;;12.60;99.90;;;;;;4961636;28;20069;-83
2023/07/22 03:49:37;;;;;;;14.52;5.95;;;12.70;99.90;;;;;;4961423;28;20042;-83
2023/07/22 03:52:03;;;;;;;18.30;13.00;;;12.80;99.90;;;;;;4977671;28;20109;-83
2023/07/22 03:54:29;;;;;;;19.85;13.15;;;12.80;99.90;;;;;;4977932;28;20132;-83
2023/07/22 03:56:54;;;;;;;14.75;6.22;;;12.90;99.90;;;;;;4976923;28;20563;-83
2023/07/22 03:59:20;;;;;;;15.15;6.28;;;12.90;99.90;;;;;;4960958;28;20041;-83
2023/07/22 04:01:46;;;;;;;15.68;5.78;;;12.90;99.90;;;;;;4961309;28;20104;-83
2023/07/22 04:04:12;;;;;;;14.02;5.93;;;12.90;99.90;;;;;;4977492;28;20039;-84
2023/07/22 04:06:38;;;;;;;13.90;5.97;;;12.90;99.90;;;;;;4977545;28;20521;-83
2023/07/22 04:09:03;;;;;;;15.20;5.65;;;12.90;99.90;;;;;;4977080;28;20039;-83
2023/07/22 04:11:29;;;;;;;19.83;13.18;;;12.90;99.90;;;;;;4977060;28;20043;-83
2023/07/22 04:13:54;;;;;;;18.25;13.55;;;13.00;99.90;;;;;;4977685;28;20034;-83
2023/07/22 04:16:20;;;;;;;13.90;6.20;;;13.10;99.90;;;;;;4976936;28;20042;-83
2023/07/22 04:18:46;;;;;;;16.23;6.05;;;13.10;99.90;;;;;;4961183;28;20038;-83
2023/07/22 04:21:11;;;;;;;15.43;6.28;;;13.10;99.90;;;;;;4977007;28;20128;-84
2023/07/22 04:23:37;;;;;;;12.75;5.28;;;13.10;99.90;;;;;;4976562;28;20038;-83
2023/07/22 04:26:04;;;;;;;13.13;7.25;;;13.10;99.90;;;;;;4976891;28;20046;-83
2023/07/22 04:28:30;;;;;;;17.00;7.22;;;13.10;99.90;;;;;;4960846;28;20049;-83
2023/07/22 04:30:58;;;;;;;19.13;13.32;;;13.10;99.90;;;;;;4976564;28;20389;-83
2023/07/22 04:33:25;;;;;;;17.83;12.48;;;13.20;99.90;;;;;;4994718;28;20038;-83
2023/07/22 04:35:53;;;;;;;12.70;6.32;;;13.30;99.90;;;;;;4976911;28;20057;-83
2023/07/22 04:38:19;;;;;;;13.73;6.07;;;13.30;99.90;;;;;;4968461;28;20042;-83
2023/07/22 04:40:45;;;;;;;13.98;5.80;;;13.30;99.90;;;;;;4971918;28;20420;-83
2023/07/22 04:43:12;;;;;;;12.90;5.47;;;13.30;99.90;;;;;;4987850;28;20046;-83
2023/07/22 04:45:40;;;;;;;19.38;13.13;;;13.30;99.90;;;;;;4984424;28;20063;-83
2023/07/22 04:48:06;;;;;;;14.02;5.97;;;13.40;99.90;;;;;;4986620;28;20034;-83
2023/07/22 04:50:31;;;;;;;14.65;6.47;;;13.40;99.90;;;;;;4986996;28;20049;-83
2023/07/22 04:52:57;;;;;;;17.85;13.90;;;13.40;99.90;;;;;;4985611;28;20034;-83
2023/07/22 04:55:23;;;;;;;14.70;5.70;;;13.50;99.90;;;;;;5010527;28;20045;-83
2023/07/22 04:57:48;;;;;;;16.50;7.35;;;13.50;99.90;;;;;;5013107;28;20037;-83
2023/07/22 05:00:16;;;;;;;17.10;7.00;;;13.50;99.90;;;;;;4992354;28;20046;-83
2023/07/22 05:02:48;;;;;;;15.35;7.47;;;13.50;99.90;;;;;;4978593;28;20559;-83
2023/07/22 05:05:15;;;;;;;15.43;6.65;;;13.50;99.90;;;;;;4999099;28;20053;-83
2023/07/22 05:07:40;;;;;;;14.63;7.07;;;13.50;99.90;;;;;;4969643;28;20133;-83
2023/07/22 05:10:11;;;;;;;18.17;13.60;;;13.60;99.90;;;;;;4986554;28;20109;-83
2023/07/22 05:12:38;;;;;;;17.10;12.57;;;13.70;99.90;;;;;;4985586;28;20042;-83
2023/07/22 05:15:04;;;;;;;16.13;6.72;;;13.80;99.90;;;;;;4984818;28;20037;-83
2023/07/22 05:17:31;;;;;;;15.77;6.43;;;13.80;99.90;;;;;;4985946;28;20029;-83
2023/07/22 05:19:57;;;;;;;19.50;13.73;;;13.70;99.90;;;;;;4985373;28;20162;-84
2023/07/22 05:22:22;;;;;;;18.95;8.88;;;13.80;99.90;;;;;;4984755;28;20073;-83
2023/07/22 05:24:48;;;;;;;13.25;6.25;;;13.80;99.90;;;;;;4986374;28;20653;-83
2023/07/22 05:27:14;;;;;;;20.08;14.00;;;13.80;99.90;;;;;;5002328;28;20042;-83
2023/07/22 05:29:40;;;;;;;21.17;13.82;;;13.90;99.90;;;;;;5002308;28;20042;-83
2023/07/22 05:32:06;;;;;;;16.80;6.65;;;14.00;99.90;;;;;;5003319;28;20053;-83
2023/07/22 05:34:32;;;;;;;17.38;7.38;;;13.90;99.90;;;;;;4984637;28;20069;-83
2023/07/22 05:36:57;;;;;;;20.80;15.55;;;13.90;99.90;;;;;;4974374;28;20073;-83
2023/07/22 05:39:23;;;;;;;14.43;6.28;;;14.00;99.90;;;;;;4979389;28;20125;-83
2023/07/22 05:41:49;;;;;;;19.67;14.43;;;14.00;99.90;;;;;;4995429;28;20046;-83
2023/07/22 05:44:14;;;;;;;19.10;14.57;;;14.00;99.90;;;;;;5012153;28;20501;-83
2023/07/22 05:46:40;;;;;;;19.55;14.75;;;14.10;99.90;;;;;;4995353;28;20034;-83
2023/07/22 05:49:05;;;;;;;17.17;7.72;;;14.10;99.90;;;;;;4979109;28;20502;-83
2023/07/22 05:51:31;;;;;;;20.70;14.80;;;14.10;99.90;;;;;;4994825;28;20189;-83
2023/07/22 05:53:57;;;;;;;17.60;7.35;;;14.20;99.90;;;;;;4978956;28;20410;-83
2023/07/22 05:56:23;;;;;;;16.35;8.73;;;14.20;99.90;;;;;;4978768;28;20414;-83
2023/07/22 05:58:49;;;;;;;23.50;17.25;;;14.10;99.90;;;;;;4994713;28;20049;-83
2023/07/22 06:01:14;;;;;;;22.75;17.23;;;14.20;99.90;;;;;;4990851;28;20038;-83
2023/07/22 06:03:41;;;;;;;19.38;8.13;;;14.30;99.90;;;;;;4992756;28;20042;-83
2023/07/22 06:06:06;;;;;;;19.77;10.18;;;14.20;99.90;;;;;;4994762;28;20141;-84
2023/07/22 06:08:32;;;;;;;18.10;9.02;;;14.20;99.90;;;;;;4965473;28;20590;-83
2023/07/22 06:10:57;;;;;;;20.42;11.30;;;14.30;99.90;;;;;;4975224;28;20085;-84
2023/07/22 06:13:23;;;;;;;18.25;10.88;;;14.20;99.90;;;;;;4975270;28;20041;-83
2023/07/22 06:15:49;;;;;;;25.27;18.95;;;14.30;99.90;;;;;;4975212;28;20093;-84
2023/07/22 06:18:14;;;;;;;29.13;19.30;;;14.40;99.90;;;;;;4975411;28;20073;-84
2023/07/22 06:20:40;;;;;;;26.88;19.98;;;14.50;99.90;;;;;;4958660;28;20556;-84
2023/07/22 06:23:05;;;;;;;24.85;19.92;;;14.50;99.90;;;;;;4958716;28;20038;-83
2023/07/22 06:25:31;;;;;;;19.77;10.68;;;14.60;99.90;;;;;;4974649;28;20110;-83
2023/07/22 06:27:57;;;;;;;21.52;10.63;;;14.50;99.90;;;;;;4958902;28;20046;-84
2023/07/22 06:30:22;;;;;;;19.77;11.23;;;14.50;99.90;;;;;;4958918;28;20085;-84
2023/07/22 06:32:48;;;;;;;30.48;20.95;;;14.50;99.90;;;;;;4975108;28;20522;-84
2023/07/22 06:35:14;;;;;;;26.67;21.75;;;14.60;99.90;;;;;;4974949;28;20514;-84
2023/07/22 06:37:40;;;;;;;20.08;9.18;;;14.60;99.90;;;;;;4974279;28;20077;-83
2023/07/22 06:40:06;;;;;;;21.08;11.45;;;14.60;99.90;;;;;;4974773;28;20042;-84
2023/07/22 06:42:32;;;;;;;24.08;11.77;;;14.60;99.90;;;;;;4974313;28;20120;-84
2023/07/22 06:44:57;;;;;;;23.17;10.98;;;14.60;99.90;;;;;;4958104;28;20078;-84
2023/07/22 06:47:23;;;;;;;26.05;20.52;;;14.60;99.90;;;;;;4974687;28;20038;-84
2023/07/22 06:49:50;;;;;;;26.90;20.60;;;14.70;99.90;;;;;;4974853;28;20129;-84
2023/07/22 06:52:16;;;;;;;29.50;21.45;;;14.70;99.90;;;;;;4974109;28;20050;-84
2023/07/22 06:54:41;;;;;;;21.35;10.95;;;14.80;99.90;;;;;;4974639;28;20044;-84
2023/07/22 06:57:07;;;;;;;29.65;21.48;;;14.80;99.90;;;;;;4958147;28;20042;-84
2023/07/22 06:59:33;;;;;;;21.40;11.05;;;14.80;99.90;;;;;;4958335;28;20074;-83
2023/07/22 07:01:59;;;;;;;24.27;11.90;;;14.80;99.90;;;;;;4958510;28;20046;-83
2023/07/22 07:04:25;;;;;;;22.42;12.30;;;14.80;99.90;;;;;;4970957;28;20033;-83
2023/07/22 07:06:50;;;;;;;20.83;10.45;;;14.80;99.90;;;;;;4984090;28;20463;-84
2023/07/22 07:09:16;;;;;;;26.80;20.05;;;14.90;99.90;;;;;;4992496;28;20032;-83
2023/07/22 07:11:42;;;;;;;27.88;20.88;;;15.00;99.90;;;;;;4993401;28;20486;-83
2023/07/22 07:14:07;;;;;;;26.30;20.48;;;15.10;99.90;;;;;;4977648;28;20507;-83
2023/07/22 07:16:33;;;;;;;23.58;11.30;;;15.20;99.90;;;;;;4992926;28;20041;-83
2023/07/22 07:19:01;;;;;;;23.70;13.30;;;15.20;99.90;;;;;;4993341;28;20124;-83
2023/07/22 07:21:27;;;;;;;20.70;11.70;;;15.20;99.90;;;;;;4993183;28;20048;-83
2023/07/22 07:23:53;;;;;;;26.65;21.30;;;15.30;99.90;;;;;;4993063;28;20046;-83
2023/07/22 07:26:19;;;;;;;27.75;21.83;;;15.40;99.90;;;;;;4976316;28;20041;-83
2023/07/22 07:28:47;;;;;;;21.45;11.23;;;15.50;99.90;;;;;;4993309;28;20494;-83
2023/07/22 07:31:12;;;;;;;27.05;21.58;;;15.50;99.90;;;;;;4976585;28;20148;-83
2023/07/22 07:33:38;;;;;;;23.40;12.70;;;15.60;99.90;;;;;;4977620;28;20533;-83
2023/07/22 07:36:04;;;;;;;21.48;11.98;;;15.70;99.90;;;;;;4993626;28;20391;-84
2023/07/22 07:38:30;;;;;;;23.67;13.60;;;15.70;99.90;;;;;;4977129;28;20034;-84
2023/07/22 07:41:01;;;;;;;27.30;20.10;;;15.70;99.90;;;;;;4993448;28;20204;-84
2023/07/22 07:43:27;;;;;;;25.02;19.27;;;15.80;99.90;;;;;;4993288;28;20041;-84
2023/07/22 07:46:20;;;;;;;21.73;11.95;;;15.90;99.90;;;;;;4976887;28;20137;-83
2023/07/22 07:48:48;;;;;;;21.75;11.70;;;15.90;99.90;;;;;;4983920;28;20470;-84
2023/07/22 07:51:15;;;;;;;24.08;18.88;;;15.90;99.90;;;;;;4976216;28;20038;-84
2023/07/22 07:53:43;;;;;;;23.42;11.65;;;16.00;99.90;;;;;;4957692;28;20042;-84
2023/07/22 07:56:09;;;;;;;19.25;11.52;;;16.00;99.90;;;;;;4973825;28;20038;-84
2023/07/22 07:58:36;;;;;;;24.23;18.77;;;16.00;99.90;;;;;;4973858;28;20455;-84
2023/07/22 08:01:01;;;;;;;23.20;19.02;;;16.10;99.90;;;;;;4957118;28;20051;-84
2023/07/22 08:03:27;;;;;;;21.75;13.00;;;16.20;99.90;;;;;;4957620;28;20046;-84
2023/07/22 08:05:52;;;;;;;20.58;17.08;;;16.30;99.90;;;;;;4973144;28;20043;-83
2023/07/22 08:08:18;;;;;;;22.48;18.55;;;16.40;99.90;;;;;;4974237;28;20045;-84
2023/07/22 08:10:44;;;;;;;21.08;16.92;;;16.50;99.90;;;;;;4973475;28;20635;-83
2023/07/22 08:13:10;;;;;;;21.55;11.40;;;16.50;99.90;;;;;;4973435;28;20090;-83
2023/07/22 08:15:35;;;;;;;20.27;17.02;;;16.60;99.90;;;;;;4973669;28;20392;-84
2023/07/22 08:18:01;;;;;;;22.30;17.33;;;16.70;99.90;;;;;;4957517;28;20093;-83
2023/07/22 08:20:27;;;;;;;20.90;16.17;;;16.70;99.90;;;;;;4974048;28;20132;-84
2023/07/22 08:22:52;;;;;;;18.17;10.65;;;16.80;99.90;;;;;;4973937;28;20034;-83
2023/07/22 08:25:18;;;;;;;20.52;15.27;;;16.90;99.90;;;;;;4974996;28;20734;-83
2023/07/22 08:27:45;;;;;;;19.10;15.77;;;16.90;99.90;;;;;;4979138;28;20104;-84
2023/07/22 08:30:11;;;;;;;17.95;14.57;;;17.00;99.90;;;;;;4995877;28;20049;-83
2023/07/22 08:32:36;;;;;;;18.65;9.80;;;17.10;99.90;;;;;;5012046;28;20398;-85
2023/07/22 08:35:03;;;;;;;18.88;14.52;;;17.10;99.90;;;;;;4995994;28;20095;-84
2023/07/22 08:37:28;;;;;;;14.35;8.65;;;17.20;99.90;;;;;;5012120;28;20037;-84
2023/07/22 08:39:54;;;;;;;19.92;14.13;;;17.30;99.90;;;;;;4979079;28;20115;-84
2023/07/22 08:42:21;;;;;;;18.05;13.57;;;17.30;99.90;;;;;;4978850;28;20049;-85
2023/07/22 08:44:48;;;;;;;16.55;13.27;;;17.40;99.90;;;;;;5012661;28;20401;-84
2023/07/22 08:47:18;;;;;;;18.73;14.07;;;17.50;99.90;;;;;;5011522;28;20120;-85
2023/07/22 08:49:50;;;;;;;18.80;14.13;;;17.70;99.90;;;;;;4979983;28;20052;-83
2023/07/22 08:52:17;;;;;;;17.40;12.60;;;17.80;99.90;;;;;;4996059;28;20038;-83
2023/07/22 08:54:44;;;;;;;17.42;13.02;;;17.90;99.90;;;;;;4996170;28;20536;-83
2023/07/22 08:57:11;;;;;;;16.38;12.70;;;18.00;99.90;;;;;;4995812;28;20068;-83
2023/07/22 08:59:37;;;;;;;17.70;12.52;;;18.10;99.90;;;;;;4995765;28;20038;-84
2023/07/22 09:02:04;;;;;;;15.60;11.90;;;18.10;99.90;;;;;;4979077;28;20041;-83
2023/07/22 09:04:30;;;;;;;16.40;11.70;;;18.20;99.90;;;;;;4995517;28;20038;-83
2023/07/22 09:06:56;;;;;;;15.07;10.70;;;18.20;99.90;;;;;;5011270;28;20064;-83
2023/07/22 09:09:25;;;;;;;14.63;9.80;;;18.30;99.90;;;;;;4995655;28;20044;-84
2023/07/22 09:11:53;;;;;;;12.88;6.38;;;18.30;99.90;;;;;;4995051;28;20059;-83
2023/07/22 09:14:19;;;;;;;14.40;10.60;;;18.30;99.90;;;;;;4978779;28;20411;-83
2023/07/22 09:16:46;;;;;;;14.02;9.90;;;18.30;99.90;;;;;;4981194;28;20038;-83
2023/07/22 09:19:11;;;;;;;14.85;10.00;;;18.20;99.90;;;;;;4975031;28;20038;-83
2023/07/22 09:21:37;;;;;;;15.10;10.88;;;18.20;99.90;;;;;;4959554;28;20065;-83
2023/07/22 09:24:23;;;;;;;13.77;10.35;;;18.20;99.90;;;;;;4976109;28;20038;-83
2023/07/22 09:26:49;;;;;;;14.13;10.02;;;18.10;99.90;;;;;;4974612;28;20133;-83
2023/07/22 09:29:15;;;;;;;15.18;10.10;;;18.10;99.90;;;;;;4975844;28;20081;-83
2023/07/22 09:31:52;;;;;;;12.13;8.70;;;18.00;99.90;;;;;;4975375;28;20074;-83
2023/07/22 09:34:18;;;;;;;15.77;10.02;;;18.00;99.90;;;;;;4993142;28;20039;-83
2023/07/22 09:36:52;;;;;;;16.70;11.18;;;17.90;99.90;;;;;;4975406;28;20038;-84
2023/07/22 09:39:18;;;;;;;17.48;11.15;;;17.80;99.90;;;;;;4974994;28;20038;-83
2023/07/22 09:41:43;;;;;;;13.75;9.48;;;17.80;99.90;;;;;;4974846;28;20096;-84
2023/07/22 09:44:12;;;;;;;16.73;10.00;;;17.80;99.90;;;;;;4992399;28;20056;-83
2023/07/22 09:46:38;;;;;;;14.13;9.73;;;17.80;99.90;;;;;;4974883;28;20574;-83
2023/07/22 09:49:05;;;;;;;12.65;8.90;;;17.80;99.90;;;;;;4975101;28;20154;-83
2023/07/22 09:51:39;;;;;;;14.27;10.10;;;17.80;99.90;;;;;;4975307;28;20129;-83
2023/07/22 09:54:06;;;;;;;14.55;10.57;;;17.80;99.90;;;;;;4975204;28;20034;-84
2023/07/22 09:56:42;;;;;;;14.63;10.52;;;17.80;99.90;;;;;;4975013;28;20038;-84
2023/07/22 09:59:10;;;;;;;15.88;10.65;;;17.80;99.90;;;;;;4975141;28;20574;-83
2023/07/22 10:01:39;;;;;;;14.05;10.20;;;17.80;99.90;;;;;;4975345;28;20097;-84
2023/07/22 10:04:05;;;;;;;14.63;10.85;;;17.90;99.90;;;;;;4975054;28;20511;-84
2023/07/22 10:06:32;;;;;;;15.45;11.57;;;17.90;99.90;;;;;;4974521;28;20511;-84
2023/07/22 10:09:02;;;;;;;14.65;10.18;;;17.90;99.90;;;;;;4975628;28;20499;-84
2023/07/22 10:11:28;;;;;;;12.18;6.38;;;18.00;99.90;;;;;;4974581;28;20558;-83
2023/07/22 10:13:55;;;;;;;14.27;10.43;;;18.00;99.90;;;;;;4978462;28;20085;-84
2023/07/22 10:16:22;;;;;;;12.02;8.23;;;18.10;99.90;;;;;;4988296;28;20029;-84
2023/07/22 10:18:51;;;;;;;12.30;8.57;;;18.10;99.90;;;;;;4993759;28;20074;-84
2023/07/22 10:21:18;;;;;;;14.30;9.98;;;18.10;99.90;;;;;;5010679;28;20044;-84
2023/07/22 10:23:47;;;;;;;14.10;9.88;;;18.10;99.90;;;;;;4983372;28;20052;-84
2023/07/22 10:26:19;;;;;;;12.98;8.82;;;18.10;99.90;;;;;;4985251;28;20037;-84
2023/07/22 10:28:46;;;;;;;13.73;9.40;;;18.10;99.90;;;;;;4986685;28;20458;-84
2023/07/22 10:31:20;;;;;;;14.50;10.57;;;18.10;99.90;;;;;;4970916;28;20096;-84
2023/07/22 10:33:46;;;;;;;15.18;10.52;;;18.10;99.90;;;;;;4991558;28;20555;-85
2023/07/22 10:36:17;;;;;;;13.88;9.50;;;18.10;99.90;;;;;;4984418;28;20042;-84
2023/07/22 10:38:43;;;;;;;14.43;9.68;;;18.10;99.90;;;;;;4968351;28;20037;-85
2023/07/22 10:41:19;;;;;;;14.40;9.25;;;18.10;99.90;;;;;;4982870;28;20038;-85
2023/07/22 10:43:59;;;;;;;15.27;9.63;;;18.10;99.90;;;;;;4966489;28;20542;-84
2023/07/22 10:46:35;;;;;;;17.52;10.13;;;18.10;99.90;;;;;;4981765;28;20042;-84
2023/07/22 10:49:16;;;;;;;14.95;9.48;;;18.00;99.90;;;;;;4982941;28;20034;-84
2023/07/22 10:51:49;;;;;;;12.70;9.13;;;18.00;99.90;;;;;;5014863;28;20029;-84
2023/07/22 10:54:30;;;;;;;14.13;9.88;;;18.00;99.90;;;;;;4982790;28;20088;-84
2023/07/22 10:56:56;;;;;;;14.00;9.35;;;18.00;99.90;;;;;;4981969;28;20030;-84
2023/07/22 10:59:27;;;;;;;14.18;9.80;;;18.00;99.90;;;;;;4974349;28;20035;-84
2023/07/22 11:01:53;;;;;;;11.75;6.20;;;18.00;99.90;;;;;;4974265;28;20050;-84
2023/07/22 11:04:32;;;;;;;14.57;10.43;;;17.90;99.90;;;;;;4957949;28;20125;-84
2023/07/22 11:07:05;;;;;;;14.73;10.57;;;17.90;99.90;;;;;;4990743;28;20038;-85
2023/07/22 11:09:34;;;;;;;14.48;10.65;;;18.00;99.90;;;;;;4957840;28;20110;-85
2023/07/22 11:12:15;;;;;;;14.52;10.88;;;18.00;99.90;;;;;;4974323;28;20039;-85
2023/07/22 11:14:52;;;;;;;13.90;10.55;;;18.00;99.90;;;;;;4967019;28;20546;-84
2023/07/22 11:17:29;;;;;;;14.85;10.75;;;18.00;99.90;;;;;;4984730;28;20398;-84
2023/07/22 11:19:56;;;;;;;14.85;11.52;;;18.00;99.90;;;;;;4989208;28;20033;-84
2023/07/22 11:22:21;;;;;;;15.63;11.55;;;18.00;99.90;;;;;;4973737;28;20034;-85
2023/07/22 11:24:47;;;;;;;17.27;11.55;;;18.00;99.90;;;;;;4975787;28;20092;-85
2023/07/22 11:27:13;;;;;;;14.85;11.07;;;18.00;99.90;;;;;;4971564;28;20410;-85
2023/07/22 11:29:40;;;;;;;17.05;11.90;;;18.00;99.90;;;;;;4989946;28;20386;-85
2023/07/22 11:32:07;;;;;;;15.30;11.52;;;17.90;99.90;;;;;;4973867;28;20037;-85
2023/07/22 11:34:33;;;;;;;18.80;12.95;;;17.90;99.90;;;;;;4971521;28;20046;-85
2023/07/22 11:36:59;;;;;;;12.63;6.55;;;17.90;99.90;;;;;;4998554;28;20026;-85
2023/07/22 11:39:26;;;;;;;13.90;10.32;;;17.70;99.90;;;;;;4966864;28;20088;-84
2023/07/22 11:41:52;;;;;;;12.05;9.30;;;17.50;99.90;;;;;;4983801;28;20096;-84
2023/07/22 11:44:26;;;;;;;13.25;9.57;;;17.40;99.90;;;;;;4982070;28;20109;-84
2023/07/22 11:46:58;;;;;;;12.73;8.75;;;17.30;99.90;;;;;;4982026;28;20049;-84
2023/07/22 11:49:25;;;;;;;;;;;17.10;99.90;;;;;;4983477;28;20411;-84
2023/07/22 11:51:54;;;;;;;11.15;7.53;;;16.90;99.90;;;;;;4982558;28;19925;-84
2023/07/22 11:54:21;;;;;;;10.13;8.13;;;16.90;99.90;;;;;;4984040;28;20403;-84
2023/07/22 11:56:47;;;;;;;9.88;7.68;;;16.90;99.90;;;;;;4983139;28;20038;-84
2023/07/22 11:59:13;;;;;;;11.68;8.38;;;16.90;99.90;;;;;;4982152;28;20426;-84
2023/07/22 12:01:38;;;;;;;10.13;7.80;;;16.80;99.90;;;;;;4969202;28;20038;-84
2023/07/22 12:04:11;;;;;;;11.20;7.95;;;16.90;99.90;;;;;;4986258;28;20041;-84
2023/07/22 12:06:37;;;;;;;10.75;5.95;;;16.90;99.90;;;;;;4968682;28;20123;-84
2023/07/22 12:09:03;;;;;;;12.57;9.75;;;16.90;99.90;;;;;;4971048;28;20081;-84
2023/07/22 12:11:32;;;;;;;10.75;6.07;;;16.80;99.90;;;;;;4986478;28;20041;-84
2023/07/22 12:14:25;;;;;;;12.75;9.63;;;16.80;99.90;;;;;;4969190;28;20038;-84
2023/07/22 12:16:58;;;;;;;9.52;5.53;;;16.80;99.90;;;;;;4984275;28;20054;-84
2023/07/22 12:19:24;;;;;;;10.18;5.63;;;16.70;99.90;;;;;;4999107;28;20038;-84
2023/07/22 12:21:49;;;;;;;10.70;7.80;;;16.70;99.90;;;;;;4967709;28;20056;-84
2023/07/22 12:24:15;;;;;;;10.75;7.32;;;16.70;99.90;;;;;;4976903;28;20042;-84
2023/07/22 12:26:41;;;;;;;10.15;6.95;;;16.80;99.90;;;;;;4978556;28;20048;-84
2023/07/22 12:29:08;;;;;;;8.73;4.45;;;16.80;99.90;;;;;;4986707;28;20410;-84
2023/07/22 12:31:34;;;;;;;9.95;7.50;;;16.70;99.90;;;;;;4967586;28;20048;-84